Time,TemperatureF,DewpointF,PressureIn,WindDirection,WindDirectionDegrees,WindSpeedMPH,WindSpeedGustMPH,Humidity,HourlyPrecipIn,Conditions,Clouds,dailyrainin,SoftwareType,DateUTC
2013-05-04 00:02:00,43.0,40.0,-100.00,WSW,240,0.0,1.0,89,0.00,,,-99.99,,2013-05-04 04:02:00,
2013-05-04 00:12:00,43.0,40.0,-100.00,West,270,0.0,1.0,90,0.00,,,-99.99,,2013-05-04 04:12:00,
2013-05-04 00:22:00,43.0,40.0,-100.00,WSW,240,0.0,1.0,90,0.00,,,-99.99,,2013-05-04 04:22:00,
2013-05-04 00:33:00,42.0,40.0,-100.00,WSW,240,0.0,1.0,90,0.00,,,-99.99,,2013-05-04 04:33:00,
2013-05-04 00:42:00,42.0,40.0,-100.00,SW,225,0.0,1.0,90,0.00,,,-99.99,,2013-05-04 04:42:00,
2013-05-04 00:52:00,42.0,39.0,-100.00,SW,225,1.0,1.0,91,0.00,,,-99.99,,2013-05-04 04:52:00,
2013-05-04 01:02:00,42.0,39.0,-100.00,SW,225,1.0,1.0,91,0.00,,,-99.99,,2013-05-04 05:02:00,
2013-05-04 01:12:00,41.0,39.0,-100.00,West,265,0.0,1.0,91,0.00,,,-99.99,,2013-05-04 05:12:00,
2013-05-04 01:22:00,41.0,39.0,-100.00,West,270,0.0,0.0,91,0.00,,,-99.99,,2013-05-04 05:22:00,
2013-05-04 01:32:00,41.0,39.0,-100.00,West,260,0.0,1.0,92,0.00,,,-99.99,,2013-05-04 05:32:00,
2013-05-04 01:42:00,41.0,39.0,-100.00,West,270,1.0,1.0,92,0.00,,,-99.99,,2013-05-04 05:42:00,
2013-05-04 01:52:00,41.0,39.0,-100.00,SSW,205,0.0,1.0,92,0.00,,,-99.99,,2013-05-04 05:52:00,
2013-05-04 02:01:00,41.0,39.0,-100.00,South,170,0.0,1.0,92,0.00,,,-99.99,,2013-05-04 06:01:00,
2013-05-04 02:11:00,40.0,38.0,-100.00,SW,235,1.0,1.0,92,0.00,,,-99.99,,2013-05-04 06:11:00,
2013-05-04 02:21:00,40.0,38.0,-100.00,WSW,250,0.0,1.0,92,0.00,,,-99.99,,2013-05-04 06:21:00,
2013-05-04 02:32:00,40.0,38.0,-100.00,West,280,0.0,1.0,93,0.00,,,-99.99,,2013-05-04 06:32:00,
2013-05-04 02:42:00,40.0,38.0,-100.00,North,10,0.0,1.0,93,0.00,,,-99.99,,2013-05-04 06:42:00,
2013-05-04 03:01:00,40.0,38.0,-100.00,SW,220,0.0,1.0,93,0.00,,,-99.99,,2013-05-04 07:01:00,
2013-05-04 03:11:00,40.0,38.0,-100.00,SSE,155,0.0,1.0,93,0.00,,,-99.99,,2013-05-04 07:11:00,
2013-05-04 03:21:00,39.0,38.0,-100.00,NNW,340,0.0,1.0,93,0.00,,,-99.99,,2013-05-04 07:21:00,
2013-05-04 03:32:00,40.0,38.0,-100.00,ENE,60,0.0,1.0,93,0.00,,,-99.99,,2013-05-04 07:32:00,
2013-05-04 03:42:00,40.0,38.0,-100.00,North,355,0.0,1.0,94,0.00,,,-99.99,,2013-05-04 07:42:00,
2013-05-04 03:52:00,39.0,38.0,-100.00,NNW,345,1.0,1.0,94,0.00,,,-99.99,,2013-05-04 07:52:00,
2013-05-04 04:02:00,39.0,38.0,-100.00,NNW,335,0.0,1.0,94,0.00,,,-99.99,,2013-05-04 08:02:00,
2013-05-04 04:11:00,39.0,38.0,-100.00,West,265,0.0,1.0,94,0.00,,,-99.99,,2013-05-04 08:11:00,
2013-05-04 04:21:00,39.0,37.0,-100.00,SSW,210,0.0,1.0,94,0.00,,,-99.99,,2013-05-04 08:21:00,
2013-05-04 04:32:00,38.0,37.0,-100.00,SSW,210,0.0,1.0,94,0.00,,,-99.99,,2013-05-04 08:32:00,
2013-05-04 04:42:00,38.0,37.0,-100.00,North,5,0.0,1.0,94,0.00,,,-99.99,,2013-05-04 08:42:00,
2013-05-04 04:52:00,38.0,37.0,-100.00,SSW,205,0.0,1.0,94,0.00,,,-99.99,,2013-05-04 08:52:00,
2013-05-04 05:02:00,38.0,36.0,-100.00,WSW,255,1.0,1.0,94,0.00,,,-99.99,,2013-05-04 09:02:00,
2013-05-04 05:11:00,38.0,36.0,-100.00,NW,310,0.0,1.0,94,0.00,,,-99.99,,2013-05-04 09:11:00,
2013-05-04 05:22:00,38.0,36.0,-100.00,West,260,0.0,1.0,94,0.00,,,-99.99,,2013-05-04 09:22:00,
2013-05-04 05:32:00,38.0,36.0,-100.00,West,260,1.0,1.0,94,0.00,,,-99.99,,2013-05-04 09:32:00,
2013-05-04 05:42:00,37.0,36.0,-100.00,SSW,205,0.0,1.0,94,0.00,,,-99.99,,2013-05-04 09:42:00,
2013-05-04 05:52:00,37.0,36.0,-100.00,WNW,295,0.0,1.0,94,0.00,,,-99.99,,2013-05-04 09:52:00,
2013-05-04 06:03:00,38.0,37.0,-100.00,North,355,1.0,2.0,94,0.00,,,-99.99,,2013-05-04 10:03:00,
2013-05-04 06:12:00,38.0,37.0,-100.00,NNW,345,0.0,2.0,95,0.00,,,-99.99,,2013-05-04 10:12:00,
2013-05-04 06:23:00,39.0,37.0,-100.00,NNW,345,1.0,2.0,95,0.00,,,-99.99,,2013-05-04 10:23:00,
2013-05-04 06:33:00,39.0,38.0,-100.00,West,270,0.0,1.0,95,0.00,,,-99.99,,2013-05-04 10:33:00,
2013-05-04 06:42:00,40.0,39.0,-100.00,SSE,165,0.0,2.0,95,0.00,,,-99.99,,2013-05-04 10:42:00,
2013-05-04 06:52:00,41.0,40.0,-100.00,SSE,155,1.0,2.0,95,0.00,,,-99.99,,2013-05-04 10:52:00,
2013-05-04 07:02:00,42.0,41.0,-100.00,NNE,20,1.0,2.0,95,0.00,,,-99.99,,2013-05-04 11:02:00,
2013-05-04 07:11:00,44.0,42.0,-100.00,ENE,65,1.0,2.0,95,0.00,,,-99.99,,2013-05-04 11:11:00,
2013-05-04 07:21:00,45.0,43.0,-100.00,NE,50,1.0,2.0,94,0.00,,,-99.99,,2013-05-04 11:21:00,
2013-05-04 07:32:00,46.0,44.0,-100.00,ESE,120,0.0,4.0,92,0.00,,,-99.99,,2013-05-04 11:32:00,
2013-05-04 07:44:00,47.0,45.0,-100.00,North,355,1.0,1.0,92,0.00,,,-99.99,,2013-05-04 11:44:00,
2013-05-04 07:56:00,49.0,45.0,-100.00,ESE,115,4.0,9.0,83,0.00,,,-99.99,,2013-05-04 11:56:00,
2013-05-04 08:07:00,50.0,43.0,-100.00,ESE,115,6.0,9.0,76,0.00,,,-99.99,,2013-05-04 12:07:00,
2013-05-04 08:14:00,52.0,41.0,-100.00,NE,55,4.0,9.0,68,0.00,,,-99.99,,2013-05-04 12:14:00,
2013-05-04 08:29:00,52.0,41.0,-100.00,ENE,65,2.0,7.0,67,0.00,,,-99.99,,2013-05-04 12:29:00,
2013-05-04 08:42:00,52.0,41.0,-100.00,NE,55,4.0,8.0,65,0.00,,,-99.99,,2013-05-04 12:42:00,
2013-05-04 08:51:00,52.0,41.0,-100.00,East,100,6.0,10.0,64,0.00,,,-99.99,,2013-05-04 12:51:00,
2013-05-04 09:01:00,53.0,41.0,-100.00,ESE,115,8.0,11.0,63,0.00,,,-99.99,,2013-05-04 13:01:00,
2013-05-04 09:21:00,54.0,41.0,-100.00,NE,55,4.0,7.0,62,0.00,,,-99.99,,2013-05-04 13:21:00,
2013-05-04 09:32:00,55.0,42.0,-100.00,NE,55,3.0,10.0,60,0.00,,,-99.99,,2013-05-04 13:32:00,
2013-05-04 09:42:00,56.0,42.0,-100.00,NE,45,2.0,10.0,59,0.00,,,-99.99,,2013-05-04 13:42:00,
2013-05-04 09:52:00,57.0,42.0,-100.00,NE,40,3.0,9.0,57,0.00,,,-99.99,,2013-05-04 13:52:00,
2013-05-04 10:02:00,56.0,42.0,-100.00,NNE,20,4.0,10.0,58,0.00,,,-99.99,,2013-05-04 14:02:00,
2013-05-04 10:11:00,58.0,42.0,-100.00,North,-999,-999.0,-999.0,55,0.00,,,-99.99,,2013-05-04 14:11:00,
2013-05-04 10:21:00,57.0,42.0,-100.00,NE,35,4.0,9.0,57,0.00,,,-99.99,,2013-05-04 14:21:00,
2013-05-04 10:32:00,58.0,42.0,-100.00,NE,50,3.0,9.0,55,0.00,,,-99.99,,2013-05-04 14:32:00,
2013-05-04 10:42:00,58.0,42.0,-100.00,North,10,4.0,9.0,55,0.00,,,-99.99,,2013-05-04 14:42:00,
2013-05-04 10:51:00,59.0,42.0,-100.00,NE,50,4.0,14.0,53,0.00,,,-99.99,,2013-05-04 14:51:00,
2013-05-04 11:02:00,59.0,42.0,-100.00,ENE,70,4.0,10.0,53,0.00,,,-99.99,,2013-05-04 15:02:00,
2013-05-04 11:12:00,60.0,42.0,-100.00,NE,35,5.0,11.0,51,0.00,,,-99.99,,2013-05-04 15:12:00,
2013-05-04 11:22:00,60.0,41.0,-100.00,ESE,110,6.0,13.0,49,0.00,,,-99.99,,2013-05-04 15:22:00,
2013-05-04 11:33:00,60.0,41.0,-100.00,ENE,60,2.0,9.0,49,0.00,,,-99.99,,2013-05-04 15:33:00,
2013-05-04 11:43:00,60.0,41.0,-100.00,NE,40,5.0,11.0,50,0.00,,,-99.99,,2013-05-04 15:43:00,
2013-05-04 11:52:00,60.0,42.0,-100.00,ENE,60,4.0,17.0,50,0.00,,,-99.99,,2013-05-04 15:52:00,
2013-05-04 12:03:00,62.0,42.0,-100.00,North,5,3.0,9.0,48,0.00,,,-99.99,,2013-05-04 16:03:00,
2013-05-04 12:12:00,62.0,42.0,-100.00,NNE,15,4.0,11.0,47,0.00,,,-99.99,,2013-05-04 16:12:00,
2013-05-04 12:22:00,61.0,41.0,-100.00,ESE,105,6.0,12.0,46,0.00,,,-99.99,,2013-05-04 16:22:00,
2013-05-04 12:33:00,60.0,41.0,-100.00,ESE,115,9.0,12.0,48,0.00,,,-99.99,,2013-05-04 16:33:00,
2013-05-04 12:42:00,61.0,41.0,-100.00,East,100,6.0,14.0,47,0.00,,,-99.99,,2013-05-04 16:42:00,
2013-05-04 12:52:00,62.0,40.0,-100.00,East,100,6.0,12.0,45,0.00,,,-99.99,,2013-05-04 16:52:00,
2013-05-04 13:02:00,61.0,39.0,-100.00,ENE,60,4.0,14.0,44,0.00,,,-99.99,,2013-05-04 17:02:00,
2013-05-04 13:12:00,62.0,40.0,-100.00,South,170,1.0,11.0,43,0.00,,,-99.99,,2013-05-04 17:12:00,
2013-05-04 13:22:00,62.0,39.0,-100.00,ENE,60,5.0,11.0,43,0.00,,,-99.99,,2013-05-04 17:22:00,
2013-05-04 13:32:00,61.0,39.0,-100.00,ESE,115,9.0,14.0,43,0.00,,,-99.99,,2013-05-04 17:32:00,
2013-05-04 13:42:00,62.0,38.0,-100.00,ENE,60,2.0,15.0,41,0.00,,,-99.99,,2013-05-04 17:42:00,
2013-05-04 13:52:00,62.0,38.0,-100.00,ESE,120,6.0,12.0,40,0.00,,,-99.99,,2013-05-04 17:52:00,
2013-05-04 14:01:00,63.0,38.0,-100.00,NNE,30,3.0,8.0,38,0.00,,,-99.99,,2013-05-04 18:01:00,
2013-05-04 14:12:00,61.0,36.0,-100.00,ESE,110,7.0,13.0,38,0.00,,,-99.99,,2013-05-04 18:12:00,
2013-05-04 14:21:00,62.0,36.0,-100.00,ENE,70,5.0,13.0,38,0.00,,,-99.99,,2013-05-04 18:21:00,
2013-05-04 14:32:00,62.0,35.0,-100.00,ESE,105,8.0,14.0,36,0.00,,,-99.99,,2013-05-04 18:32:00,
2013-05-04 14:42:00,62.0,35.0,-100.00,ESE,105,6.0,16.0,36,0.00,,,-99.99,,2013-05-04 18:42:00,
2013-05-04 14:52:00,61.0,33.0,-100.00,ESE,115,11.0,17.0,34,0.00,,,-99.99,,2013-05-04 18:52:00,
2013-05-04 15:01:00,63.0,33.0,-100.00,SW,215,3.0,17.0,32,0.00,,,-99.99,,2013-05-04 19:01:00,
2013-05-04 15:11:00,61.0,30.0,-100.00,ESE,120,9.0,15.0,30,0.00,,,-99.99,,2013-05-04 19:11:00,
2013-05-04 15:21:00,62.0,31.0,-100.00,ESE,110,3.0,15.0,31,0.00,,,-99.99,,2013-05-04 19:21:00,
2013-05-04 15:32:00,63.0,29.0,-100.00,South,170,4.0,13.0,27,0.00,,,-99.99,,2013-05-04 19:32:00,
2013-05-04 15:42:00,62.0,27.0,-100.00,ESE,115,9.0,17.0,26,0.00,,,-99.99,,2013-05-04 19:42:00,
2013-05-04 15:52:00,62.0,27.0,-100.00,North,-999,-999.0,-999.0,25,-99.99,,,-99.99,,2013-05-04 19:52:00,
2013-05-04 16:02:00,62.0,27.0,-100.00,ESE,115,7.0,16.0,26,0.00,,,-99.99,,2013-05-04 20:02:00,
2013-05-04 16:11:00,63.0,30.0,-100.00,North,-999,-999.0,-999.0,28,0.00,,,-99.99,,2013-05-04 20:11:00,
2013-05-04 16:22:00,62.0,29.0,-100.00,East,85,5.0,11.0,29,0.00,,,-99.99,,2013-05-04 20:22:00,
2013-05-04 16:42:00,61.0,31.0,-100.00,SSE,155,4.0,12.0,31,0.00,,,-99.99,,2013-05-04 20:42:00,
2013-05-04 16:52:00,60.0,32.0,-100.00,ESE,115,6.0,12.0,34,0.00,,,-99.99,,2013-05-04 20:52:00,
2013-05-04 17:02:00,61.0,32.0,-100.00,ESE,105,5.0,10.0,32,0.00,,,-99.99,,2013-05-04 21:02:00,
2013-05-04 17:12:00,60.0,31.0,-100.00,ESE,105,6.0,14.0,33,0.00,,,-99.99,,2013-05-04 21:12:00,
2013-05-04 17:22:00,60.0,33.0,-100.00,South,170,3.0,15.0,36,0.00,,,-99.99,,2013-05-04 21:22:00,
2013-05-04 17:33:00,60.0,34.0,-100.00,ESE,110,5.0,14.0,37,0.00,,,-99.99,,2013-05-04 21:33:00,
2013-05-04 17:43:00,59.0,34.0,-100.00,ENE,65,4.0,12.0,38,0.00,,,-99.99,,2013-05-04 21:43:00,
2013-05-04 17:53:00,59.0,35.0,-100.00,ESE,115,4.0,11.0,40,0.00,,,-99.99,,2013-05-04 21:53:00,
2013-05-04 18:03:00,58.0,33.0,-100.00,ENE,75,2.0,17.0,39,0.00,,,-99.99,,2013-05-04 22:03:00,
2013-05-04 18:12:00,57.0,33.0,-100.00,East,95,6.0,14.0,39,0.00,,,-99.99,,2013-05-04 22:12:00,
2013-05-04 18:22:00,56.0,30.0,-100.00,ESE,115,9.0,13.0,36,0.00,,,-99.99,,2013-05-04 22:22:00,
2013-05-04 18:33:00,56.0,30.0,-100.00,ESE,105,6.0,11.0,37,0.00,,,-99.99,,2013-05-04 22:33:00,
2013-05-04 18:42:00,56.0,31.0,-100.00,ESE,110,7.0,12.0,39,0.00,,,-99.99,,2013-05-04 22:42:00,
2013-05-04 18:52:00,54.0,32.0,-100.00,ESE,115,10.0,16.0,41,0.00,,,-99.99,,2013-05-04 22:52:00,
2013-05-04 19:02:00,54.0,32.0,-100.00,ESE,120,9.0,12.0,43,0.00,,,-99.99,,2013-05-04 23:02:00,
2013-05-04 19:12:00,53.0,32.0,-100.00,ESE,105,3.0,11.0,44,0.00,,,-99.99,,2013-05-04 23:12:00,
2013-05-04 19:22:00,52.0,32.0,-100.00,East,85,4.0,9.0,45,0.00,,,-99.99,,2013-05-04 23:22:00,
2013-05-04 19:32:00,52.0,31.0,-100.00,East,100,4.0,9.0,45,0.00,,,-99.99,,2013-05-04 23:32:00,
2013-05-04 19:42:00,51.0,30.0,-100.00,ESE,105,7.0,12.0,43,0.00,,,-99.99,,2013-05-04 23:42:00,
2013-05-04 19:52:00,51.0,30.0,-100.00,East,100,5.0,10.0,44,0.00,,,-99.99,,2013-05-04 23:52:00,
2013-05-04 20:02:00,50.0,30.0,-100.00,East,100,2.0,7.0,46,0.00,,,-99.99,,2013-05-05 00:02:00,
2013-05-04 20:11:00,49.0,31.0,-100.00,ENE,65,1.0,6.0,49,0.00,,,-99.99,,2013-05-05 00:11:00,
2013-05-04 20:21:00,49.0,31.0,-100.00,ENE,60,2.0,4.0,50,0.00,,,-99.99,,2013-05-05 00:21:00,
2013-05-04 20:32:00,48.0,31.0,-100.00,ENE,65,1.0,4.0,51,0.00,,,-99.99,,2013-05-05 00:32:00,
2013-05-04 20:42:00,48.0,32.0,-100.00,ENE,60,1.0,2.0,53,0.00,,,-99.99,,2013-05-05 00:42:00,
2013-05-04 20:51:00,47.0,32.0,-100.00,East,90,1.0,4.0,55,0.00,,,-99.99,,2013-05-05 00:51:00,
2013-05-04 21:01:00,47.0,33.0,-100.00,East,100,1.0,4.0,57,0.00,,,-99.99,,2013-05-05 01:01:00,
2013-05-04 21:11:00,47.0,34.0,-100.00,East,80,1.0,5.0,60,0.00,,,-99.99,,2013-05-05 01:11:00,
2013-05-04 21:21:00,46.0,35.0,-100.00,NE,40,1.0,3.0,63,0.00,,,-99.99,,2013-05-05 01:21:00,
2013-05-04 21:32:00,46.0,36.0,-100.00,ESE,110,1.0,3.0,67,0.00,,,-99.99,,2013-05-05 01:32:00,
2013-05-04 21:42:00,45.0,36.0,-100.00,North,355,1.0,2.0,70,0.00,,,-99.99,,2013-05-05 01:42:00,
2013-05-04 21:52:00,44.0,36.0,-100.00,North,-999,-999.0,-999.0,73,0.00,,,-99.99,,2013-05-05 01:52:00,
2013-05-04 22:02:00,45.0,36.0,-100.00,East,100,1.0,3.0,73,0.00,,,-99.99,,2013-05-05 02:02:00,
2013-05-04 22:11:00,44.0,36.0,-100.00,North,-999,-999.0,-999.0,74,0.00,,,-99.99,,2013-05-05 02:11:00,
2013-05-04 22:22:00,43.0,35.0,-100.00,SW,225,1.0,2.0,74,0.00,,,-99.99,,2013-05-05 02:22:00,
2013-05-04 22:32:00,42.0,35.0,-100.00,NW,305,0.0,1.0,75,0.00,,,-99.99,,2013-05-05 02:32:00,
2013-05-04 22:42:00,42.0,35.0,-100.00,NNW,345,1.0,2.0,76,0.00,,,-99.99,,2013-05-05 02:42:00,
2013-05-04 22:52:00,42.0,36.0,-100.00,North,0,1.0,2.0,80,0.00,,,-99.99,,2013-05-05 02:52:00,
2013-05-04 23:01:00,41.0,36.0,-100.00,NE,45,0.0,2.0,81,0.00,,,-99.99,,2013-05-05 03:01:00,
2013-05-04 23:11:00,40.0,36.0,-100.00,WSW,250,1.0,1.0,83,0.00,,,-99.99,,2013-05-05 03:11:00,
2013-05-04 23:22:00,39.0,35.0,-100.00,West,260,0.0,1.0,84,0.00,,,-99.99,,2013-05-05 03:22:00,
2013-05-04 23:33:00,39.0,35.0,-100.00,NNW,330,0.0,1.0,85,0.00,,,-99.99,,2013-05-05 03:33:00,
2013-05-04 23:42:00,39.0,35.0,-100.00,NNE,15,0.0,1.0,86,0.00,,,-99.99,,2013-05-05 03:42:00,
2013-05-04 23:53:00,39.0,36.0,-100.00,ENE,65,0.0,1.0,87,0.00,,,-99.99,,2013-05-05 03:53:00,